Aérodrome :







RETROUVEZ-NOUS SUR...

 
LOGIN :

S'inscrire | Disclaimer

   EN    FR    IT 

 









Légende :    VFR   VFR Marginal   IFR   IFR Intensif   IFR Très Intensif
Visi : 
Plafond : 
>= 8 km
>= 3000ft
5 à 8 km
1000 à 3000 ft
1500m à 5 km
500 à 1000 ft
800 à 1500m
200 à 500 ft
< 800m
< 200 ft
Symboles :   Orages  Brouillard  Fortes neiges  Fortes précipitations  Vent > 20 kt







- Altitude de l'aérodrome : 228 ft


KFSO - Franklin County State

DERNIER METAR :
  • 230536Z AUTO 35005KT 10SM CLR 09/02 A3007 RMK AO2 T00850022

METARs EXPIRÉS :
  • 230516Z AUTO 01005KT 10SM CLR 09/02 A3008 RMK AO2 T00850024
  • 230455Z AUTO 36006KT 10SM CLR 09/03 A3009 RMK AO2 T00870026 401920049
  • 230435Z AUTO 35005KT 10SM CLR 09/03 A3009 RMK AO2 T00900031
  • 230416Z AUTO 34005KT 10SM CLR 09/04 A3010 RMK AO2 T00900035
  • 230356Z AUTO 35005KT 10SM CLR 09/04 A3010 RMK AO2 T00930040
  • 230336Z AUTO 32003KT 10SM CLR 09/05 A3011 RMK AO2 T00930045
  • 230316Z AUTO 34004KT 10SM CLR 10/04 A3011 RMK AO2 T00980044
  • 230256Z AUTO 00000KT 10SM CLR 10/04 A3012 RMK AO2 T01000036

TAF N/A
FIR KZBW / Amérique du Nord



MET'MAP, la Météo Aéronautique d'un coup d'oeil ! - Copyright ORBIFLY Décembre 2007 - Disclaimer

ORBIFLY MET'MAP TEAM :

Programmation & Développement : Alexandra Zaïnal
Conception & Développement : Baudouin d'Aumeries
Co-Programmation & Développement : Marc-Olivier Méhu
Soutien technique & logistique : Manuel Goepfert

Contact : metmap@orbifly.com




SOURCES & CREDITS :

   NOAA